Millville Municipal Airport
KMIV : now visible

Airfield :











YOU CAN JOIN US ON...

 
LOGIN :

Register | Disclaimer

   EN    FR    IT 

 









Legend :    VFR   Marginal VFR   IFR   Intensive IFR   Very Intensive IFR
Visi :
Ceiling :
>= 8 km
>= 3000ft
5 to 8 km
1000 to 3000 ft
1500m to 5 km
500 to 1000 ft
800 to 1500m
200 to 500 ft
< 800m
< 200 ft
Symbols :   Thunderstorms  Fog  Heavy snow  Heavy precipitations  Wind > 20 kt







- Airport Elevation : 85 ft


KMIV - Millville Municipal

CURRENT METAR :
  • 162054Z AUTO VRB03KT 10SM OVC075 27/14 A2998 RMK AO2 SLP151 T02670144 56015

EXPIRED METARs :
  • 161954Z AUTO VRB04KT 10SM FEW080 OVC120 28/13 A2999 RMK AO2 SLP153 T02780133
  • 161854Z AUTO VRB03KT 10SM OVC075 28/14 A3001 RMK AO2 SLP160 T02780139

TAF KMIV
Valid from the 16 at 18:00 until the 17 at 18:00 UTC


161720Z 1618/1718 VRB04KT P6SM SCT080 BKN100
FM162300 13004KT P6SM SCT050 BKN080
FM170100 05006KT P6SM OVC050
FM171000 06010KT P6SM FEW090
No reported NOTAMs for that airfield.



MET'MAP, your aeronautical weather chart ! - Copyright ORBIFLY December 2007 - Disclaimer

ORBIFLY MET'MAP TEAM :

Programming & Development : Alexandra Zaïnal
Concept & Development : Baudouin d'Aumeries
Co-Development & Prog : Marc-Olivier Méhu
Technical & hardware support : Manuel Goepfert

Contact : metmap@orbifly.com




SOURCES & CREDITS :

   NOAA       Earth
Advisory